sensor_id;sensor_type;location;lat;lon;timestamp;P1;durP1;ratioP1;P2;durP2;ratioP2
46222;SDS011;31943;51.410;7.564;2022-12-07T00:01:42;41.95;;;31.88;;
46222;SDS011;31943;51.410;7.564;2022-12-07T00:04:11;51.22;;;33.95;;
46222;SDS011;31943;51.410;7.564;2022-12-07T00:06:39;45.90;;;32.70;;
46222;SDS011;31943;51.410;7.564;2022-12-07T00:09:10;44.28;;;32.35;;
46222;SDS011;31943;51.410;7.564;2022-12-07T00:11:36;43.20;;;32.03;;
46222;SDS011;31943;51.410;7.564;2022-12-07T00:14:06;44.70;;;32.35;;
46222;SDS011;31943;51.410;7.564;2022-12-07T00:16:35;44.63;;;31.95;;
46222;SDS011;31943;51.410;7.564;2022-12-07T00:19:06;43.92;;;32.13;;
46222;SDS011;31943;51.410;7.564;2022-12-07T00:21:33;46.90;;;32.95;;
46222;SDS011;31943;51.410;7.564;2022-12-07T00:24:01;42.42;;;31.40;;
46222;SDS011;31943;51.410;7.564;2022-12-07T00:26:29;41.72;;;30.38;;
46222;SDS011;31943;51.410;7.564;2022-12-07T00:28:57;44.75;;;32.97;;
46222;SDS011;31943;51.410;7.564;2022-12-07T00:31:28;39.92;;;32.25;;
46222;SDS011;31943;51.410;7.564;2022-12-07T00:33:57;50.40;;;32.65;;
46222;SDS011;31943;51.410;7.564;2022-12-07T00:36:26;44.42;;;30.63;;
46222;SDS011;31943;51.410;7.564;2022-12-07T00:38:54;45.08;;;30.55;;
46222;SDS011;31943;51.410;7.564;2022-12-07T00:41:23;42.97;;;30.13;;
46222;SDS011;31943;51.410;7.564;2022-12-07T00:43:55;42.47;;;31.38;;
46222;SDS011;31943;51.410;7.564;2022-12-07T00:46:24;41.08;;;30.77;;
46222;SDS011;31943;51.410;7.564;2022-12-07T00:48:55;40.90;;;30.80;;
46222;SDS011;31943;51.410;7.564;2022-12-07T00:51:41;42.00;;;31.08;;
46222;SDS011;31943;51.410;7.564;2022-12-07T00:54:12;40.33;;;30.23;;
46222;SDS011;31943;51.410;7.564;2022-12-07T00:56:39;44.35;;;32.08;;
46222;SDS011;31943;51.410;7.564;2022-12-07T00:59:10;39.97;;;30.48;;
46222;SDS011;31943;51.410;7.564;2022-12-07T01:01:38;45.60;;;31.92;;
46222;SDS011;31943;51.410;7.564;2022-12-07T01:04:06;45.40;;;30.98;;
46222;SDS011;31943;51.410;7.564;2022-12-07T01:06:32;42.13;;;32.10;;
46222;SDS011;31943;51.410;7.564;2022-12-07T01:08:58;43.45;;;30.95;;
46222;SDS011;31943;51.410;7.564;2022-12-07T01:11:25;45.78;;;31.00;;
46222;SDS011;31943;51.410;7.564;2022-12-07T01:13:55;45.22;;;33.63;;
46222;SDS011;31943;51.410;7.564;2022-12-07T01:16:22;43.08;;;32.70;;
46222;SDS011;31943;51.410;7.564;2022-12-07T01:18:52;45.55;;;33.88;;
46222;SDS011;31943;51.410;7.564;2022-12-07T01:21:21;46.45;;;34.17;;
46222;SDS011;31943;51.410;7.564;2022-12-07T01:23:53;43.13;;;30.73;;
46222;SDS011;31943;51.410;7.564;2022-12-07T01:26:20;44.85;;;33.20;;
46222;SDS011;31943;51.410;7.564;2022-12-07T01:28:47;41.97;;;32.20;;
46222;SDS011;31943;51.410;7.564;2022-12-07T01:31:14;42.08;;;31.73;;
46222;SDS011;31943;51.410;7.564;2022-12-07T01:33:42;45.55;;;32.65;;
46222;SDS011;31943;51.410;7.564;2022-12-07T01:36:13;52.58;;;33.33;;
46222;SDS011;31943;51.410;7.564;2022-12-07T01:38:42;41.88;;;32.85;;
46222;SDS011;31943;51.410;7.564;2022-12-07T01:41:10;41.97;;;32.22;;
46222;SDS011;31943;51.410;7.564;2022-12-07T01:44:06;42.03;;;30.45;;
46222;SDS011;31943;51.410;7.564;2022-12-07T01:46:39;44.60;;;31.73;;
46222;SDS011;31943;51.410;7.564;2022-12-07T01:49:08;48.47;;;34.00;;
46222;SDS011;31943;51.410;7.564;2022-12-07T01:51:39;44.13;;;32.97;;
46222;SDS011;31943;51.410;7.564;2022-12-07T01:54:11;46.90;;;33.40;;
46222;SDS011;31943;51.410;7.564;2022-12-07T01:56:40;44.30;;;34.13;;
46222;SDS011;31943;51.410;7.564;2022-12-07T01:59:09;45.38;;;34.40;;
46222;SDS011;31943;51.410;7.564;2022-12-07T02:01:39;43.95;;;32.75;;
46222;SDS011;31943;51.410;7.564;2022-12-07T02:04:06;43.63;;;32.63;;
46222;SDS011;31943;51.410;7.564;2022-12-07T02:06:33;44.63;;;32.08;;
46222;SDS011;31943;51.410;7.564;2022-12-07T02:09:03;44.20;;;33.40;;
46222;SDS011;31943;51.410;7.564;2022-12-07T02:11:34;45.67;;;34.72;;
46222;SDS011;31943;51.410;7.564;2022-12-07T02:14:01;46.30;;;33.38;;
46222;SDS011;31943;51.410;7.564;2022-12-07T02:16:36;44.42;;;32.97;;
46222;SDS011;31943;51.410;7.564;2022-12-07T02:19:23;49.33;;;34.72;;
46222;SDS011;31943;51.410;7.564;2022-12-07T02:22:08;47.00;;;33.83;;
46222;SDS011;31943;51.410;7.564;2022-12-07T02:24:56;50.08;;;35.92;;
46222;SDS011;31943;51.410;7.564;2022-12-07T02:30:23;50.00;;;34.03;;
46222;SDS011;31943;51.410;7.564;2022-12-07T02:32:59;52.97;;;36.38;;
46222;SDS011;31943;51.410;7.564;2022-12-07T02:35:33;49.17;;;34.17;;
46222;SDS011;31943;51.410;7.564;2022-12-07T02:38:11;44.28;;;32.75;;
46222;SDS011;31943;51.410;7.564;2022-12-07T02:40:45;45.75;;;31.90;;
46222;SDS011;31943;51.410;7.564;2022-12-07T02:43:16;47.28;;;33.40;;
46222;SDS011;31943;51.410;7.564;2022-12-07T02:45:49;46.67;;;34.72;;
46222;SDS011;31943;51.410;7.564;2022-12-07T02:48:18;43.97;;;32.22;;
46222;SDS011;31943;51.410;7.564;2022-12-07T02:50:49;46.78;;;33.22;;
46222;SDS011;31943;51.410;7.564;2022-12-07T02:53:32;50.13;;;34.97;;
46222;SDS011;31943;51.410;7.564;2022-12-07T02:56:02;46.60;;;32.10;;
46222;SDS011;31943;51.410;7.564;2022-12-07T02:58:40;42.88;;;32.22;;
46222;SDS011;31943;51.410;7.564;2022-12-07T03:01:22;42.78;;;32.38;;
46222;SDS011;31943;51.410;7.564;2022-12-07T03:03:58;42.80;;;31.00;;
46222;SDS011;31943;51.410;7.564;2022-12-07T03:06:34;38.50;;;29.17;;
46222;SDS011;31943;51.410;7.564;2022-12-07T03:09:09;47.65;;;30.42;;
46222;SDS011;31943;51.410;7.564;2022-12-07T03:11:43;42.58;;;30.63;;
46222;SDS011;31943;51.410;7.564;2022-12-07T03:14:15;39.47;;;29.10;;
46222;SDS011;31943;51.410;7.564;2022-12-07T03:19:37;43.97;;;29.05;;
46222;SDS011;31943;51.410;7.564;2022-12-07T03:22:07;38.22;;;28.85;;
46222;SDS011;31943;51.410;7.564;2022-12-07T03:24:45;38.30;;;27.67;;
46222;SDS011;31943;51.410;7.564;2022-12-07T03:27:20;38.47;;;28.60;;
46222;SDS011;31943;51.410;7.564;2022-12-07T03:29:52;35.92;;;27.50;;
46222;SDS011;31943;51.410;7.564;2022-12-07T03:32:29;39.15;;;27.83;;
46222;SDS011;31943;51.410;7.564;2022-12-07T03:35:09;36.15;;;26.05;;
46222;SDS011;31943;51.410;7.564;2022-12-07T03:37:43;37.05;;;28.17;;
46222;SDS011;31943;51.410;7.564;2022-12-07T03:40:16;34.45;;;26.17;;
46222;SDS011;31943;51.410;7.564;2022-12-07T03:42:48;40.92;;;26.15;;
46222;SDS011;31943;51.410;7.564;2022-12-07T03:45:17;37.88;;;26.55;;
46222;SDS011;31943;51.410;7.564;2022-12-07T03:47:48;36.25;;;25.70;;
46222;SDS011;31943;51.410;7.564;2022-12-07T03:50:25;36.40;;;25.70;;
46222;SDS011;31943;51.410;7.564;2022-12-07T03:52:58;34.78;;;24.80;;
46222;SDS011;31943;51.410;7.564;2022-12-07T03:55:32;34.35;;;23.50;;
46222;SDS011;31943;51.410;7.564;2022-12-07T03:58:08;33.00;;;23.77;;
46222;SDS011;31943;51.410;7.564;2022-12-07T04:00:40;31.58;;;23.75;;
46222;SDS011;31943;51.410;7.564;2022-12-07T04:03:11;34.80;;;22.92;;
46222;SDS011;31943;51.410;7.564;2022-12-07T04:05:55;29.67;;;21.65;;
46222;SDS011;31943;51.410;7.564;2022-12-07T04:08:21;31.33;;;22.23;;
46222;SDS011;31943;51.410;7.564;2022-12-07T04:10:48;32.05;;;22.98;;
46222;SDS011;31943;51.410;7.564;2022-12-07T04:13:25;34.45;;;22.35;;
46222;SDS011;31943;51.410;7.564;2022-12-07T04:15:52;34.95;;;22.85;;
46222;SDS011;31943;51.410;7.564;2022-12-07T04:18:23;35.05;;;23.52;;
46222;SDS011;31943;51.410;7.564;2022-12-07T04:20:49;32.38;;;22.58;;
46222;SDS011;31943;51.410;7.564;2022-12-07T04:23:16;31.88;;;22.88;;
46222;SDS011;31943;51.410;7.564;2022-12-07T04:25:43;30.70;;;21.98;;
46222;SDS011;31943;51.410;7.564;2022-12-07T04:28:09;32.20;;;22.77;;
46222;SDS011;31943;51.410;7.564;2022-12-07T04:30:36;34.08;;;21.50;;
46222;SDS011;31943;51.410;7.564;2022-12-07T04:33:04;32.42;;;24.27;;
46222;SDS011;31943;51.410;7.564;2022-12-07T04:35:31;32.30;;;22.30;;
46222;SDS011;31943;51.410;7.564;2022-12-07T04:37:58;31.20;;;22.10;;
46222;SDS011;31943;51.410;7.564;2022-12-07T04:40:23;31.30;;;22.40;;
46222;SDS011;31943;51.410;7.564;2022-12-07T04:42:50;24.17;;;18.10;;
46222;SDS011;31943;51.410;7.564;2022-12-07T04:45:17;29.25;;;20.38;;
46222;SDS011;31943;51.410;7.564;2022-12-07T04:47:44;30.60;;;21.08;;
46222;SDS011;31943;51.410;7.564;2022-12-07T04:50:10;29.67;;;19.90;;
46222;SDS011;31943;51.410;7.564;2022-12-07T04:52:39;26.20;;;19.55;;
46222;SDS011;31943;51.410;7.564;2022-12-07T04:55:05;30.88;;;19.92;;
46222;SDS011;31943;51.410;7.564;2022-12-07T04:57:31;26.80;;;20.80;;
46222;SDS011;31943;51.410;7.564;2022-12-07T04:59:58;28.75;;;20.85;;
46222;SDS011;31943;51.410;7.564;2022-12-07T05:02:24;30.45;;;19.98;;
46222;SDS011;31943;51.410;7.564;2022-12-07T05:04:49;32.63;;;21.02;;
46222;SDS011;31943;51.410;7.564;2022-12-07T05:07:18;29.85;;;19.92;;
46222;SDS011;31943;51.410;7.564;2022-12-07T05:09:46;27.85;;;19.42;;
46222;SDS011;31943;51.410;7.564;2022-12-07T05:12:12;27.35;;;19.55;;
46222;SDS011;31943;51.410;7.564;2022-12-07T05:14:37;28.90;;;20.35;;
46222;SDS011;31943;51.410;7.564;2022-12-07T05:17:03;30.95;;;18.42;;
46222;SDS011;31943;51.410;7.564;2022-12-07T05:19:30;35.63;;;18.65;;
46222;SDS011;31943;51.410;7.564;2022-12-07T05:21:57;28.50;;;19.17;;
46222;SDS011;31943;51.410;7.564;2022-12-07T05:24:23;24.95;;;18.17;;
46222;SDS011;31943;51.410;7.564;2022-12-07T05:26:50;27.35;;;18.45;;
46222;SDS011;31943;51.410;7.564;2022-12-07T05:29:16;28.45;;;18.58;;
46222;SDS011;31943;51.410;7.564;2022-12-07T05:31:42;27.60;;;18.35;;
46222;SDS011;31943;51.410;7.564;2022-12-07T05:34:08;28.67;;;18.30;;
46222;SDS011;31943;51.410;7.564;2022-12-07T05:36:37;29.88;;;19.98;;
46222;SDS011;31943;51.410;7.564;2022-12-07T05:39:03;28.10;;;18.75;;
46222;SDS011;31943;51.410;7.564;2022-12-07T05:41:28;27.05;;;19.52;;
46222;SDS011;31943;51.410;7.564;2022-12-07T05:43:56;30.60;;;19.42;;
46222;SDS011;31943;51.410;7.564;2022-12-07T05:46:22;28.77;;;19.77;;
46222;SDS011;31943;51.410;7.564;2022-12-07T05:48:49;30.23;;;19.88;;
46222;SDS011;31943;51.410;7.564;2022-12-07T05:51:15;28.60;;;19.92;;
46222;SDS011;31943;51.410;7.564;2022-12-07T05:53:44;30.35;;;19.92;;
46222;SDS011;31943;51.410;7.564;2022-12-07T05:56:10;31.85;;;21.25;;
46222;SDS011;31943;51.410;7.564;2022-12-07T05:58:37;27.48;;;19.88;;
46222;SDS011;31943;51.410;7.564;2022-12-07T06:01:05;34.55;;;22.10;;
46222;SDS011;31943;51.410;7.564;2022-12-07T06:03:31;36.42;;;22.48;;
46222;SDS011;31943;51.410;7.564;2022-12-07T06:05:56;31.15;;;22.10;;
46222;SDS011;31943;51.410;7.564;2022-12-07T06:08:22;35.13;;;22.27;;
46222;SDS011;31943;51.410;7.564;2022-12-07T06:10:50;29.23;;;20.40;;
46222;SDS011;31943;51.410;7.564;2022-12-07T06:13:16;28.63;;;20.58;;
46222;SDS011;31943;51.410;7.564;2022-12-07T07:33:40;31.48;;;21.02;;
46222;SDS011;31943;51.410;7.564;2022-12-07T07:36:18;28.98;;;20.77;;
46222;SDS011;31943;51.410;7.564;2022-12-07T07:38:50;28.92;;;21.30;;
46222;SDS011;31943;51.410;7.564;2022-12-07T07:41:22;28.10;;;21.58;;
46222;SDS011;31943;51.410;7.564;2022-12-07T07:43:52;30.73;;;21.83;;
46222;SDS011;31943;51.410;7.564;2022-12-07T10:31:17;28.08;;;19.73;;
46222;SDS011;31943;51.410;7.564;2022-12-07T10:33:49;31.80;;;21.23;;
46222;SDS011;31943;51.410;7.564;2022-12-07T10:36:34;31.98;;;19.15;;
46222;SDS011;31943;51.410;7.564;2022-12-07T10:50:29;31.67;;;18.48;;
46222;SDS011;31943;51.410;7.564;2022-12-07T10:53:14;25.88;;;18.80;;
46222;SDS011;31943;51.410;7.564;2022-12-07T10:55:56;28.58;;;19.33;;
46222;SDS011;31943;51.410;7.564;2022-12-07T10:59:14;24.20;;;17.67;;
46222;SDS011;31943;51.410;7.564;2022-12-07T11:06:42;29.23;;;18.50;;
46222;SDS011;31943;51.410;7.564;2022-12-07T11:12:34;26.63;;;17.98;;
46222;SDS011;31943;51.410;7.564;2022-12-07T11:23:18;20.98;;;16.40;;
46222;SDS011;31943;51.410;7.564;2022-12-07T11:25:58;20.77;;;15.40;;
46222;SDS011;31943;51.410;7.564;2022-12-07T11:28:40;22.13;;;15.40;;
46222;SDS011;31943;51.410;7.564;2022-12-07T11:31:28;23.38;;;16.25;;
46222;SDS011;31943;51.410;7.564;2022-12-07T11:53:56;15.95;;;12.90;;
46222;SDS011;31943;51.410;7.564;2022-12-07T11:56:31;17.63;;;12.35;;
46222;SDS011;31943;51.410;7.564;2022-12-07T11:59:03;20.38;;;12.85;;
46222;SDS011;31943;51.410;7.564;2022-12-07T12:01:41;24.67;;;13.43;;
46222;SDS011;31943;51.410;7.564;2022-12-07T12:04:16;16.88;;;12.73;;
46222;SDS011;31943;51.410;7.564;2022-12-07T12:06:55;21.98;;;12.73;;
46222;SDS011;31943;51.410;7.564;2022-12-07T12:09:29;20.17;;;12.60;;
46222;SDS011;31943;51.410;7.564;2022-12-07T12:12:17;16.70;;;11.77;;
46222;SDS011;31943;51.410;7.564;2022-12-07T12:15:02;18.58;;;13.80;;
46222;SDS011;31943;51.410;7.564;2022-12-07T12:17:50;15.95;;;11.30;;
46222;SDS011;31943;51.410;7.564;2022-12-07T12:20:35;19.40;;;11.63;;
46222;SDS011;31943;51.410;7.564;2022-12-07T12:23:07;18.95;;;11.88;;
46222;SDS011;31943;51.410;7.564;2022-12-07T12:25:41;19.13;;;11.85;;
46222;SDS011;31943;51.410;7.564;2022-12-07T12:28:18;15.18;;;10.93;;
46222;SDS011;31943;51.410;7.564;2022-12-07T12:34:03;15.65;;;10.80;;
46222;SDS011;31943;51.410;7.564;2022-12-07T12:36:48;14.10;;;10.13;;
46222;SDS011;31943;51.410;7.564;2022-12-07T12:39:22;16.08;;;10.40;;
46222;SDS011;31943;51.410;7.564;2022-12-07T12:41:59;17.58;;;10.38;;
46222;SDS011;31943;51.410;7.564;2022-12-07T12:47:43;17.25;;;10.50;;
46222;SDS011;31943;51.410;7.564;2022-12-07T12:50:27;16.80;;;10.43;;
46222;SDS011;31943;51.410;7.564;2022-12-07T12:56:06;22.70;;;11.82;;
46222;SDS011;31943;51.410;7.564;2022-12-07T13:01:55;14.27;;;10.18;;
46222;SDS011;31943;51.410;7.564;2022-12-07T13:13:29;14.10;;;9.48;;
46222;SDS011;31943;51.410;7.564;2022-12-07T13:22:45;15.98;;;9.30;;
46222;SDS011;31943;51.410;7.564;2022-12-07T13:28:10;16.15;;;11.13;;
46222;SDS011;31943;51.410;7.564;2022-12-07T13:30:46;18.23;;;10.75;;
46222;SDS011;31943;51.410;7.564;2022-12-07T13:33:19;16.10;;;11.68;;
46222;SDS011;31943;51.410;7.564;2022-12-07T13:35:58;19.02;;;10.68;;
46222;SDS011;31943;51.410;7.564;2022-12-07T13:38:33;19.77;;;11.23;;
46222;SDS011;31943;51.410;7.564;2022-12-07T13:41:01;16.65;;;10.82;;
46222;SDS011;31943;51.410;7.564;2022-12-07T13:43:27;15.32;;;10.52;;
46222;SDS011;31943;51.410;7.564;2022-12-07T13:45:55;11.43;;;8.98;;
46222;SDS011;31943;51.410;7.564;2022-12-07T13:48:24;16.90;;;8.88;;
46222;SDS011;31943;51.410;7.564;2022-12-07T13:50:56;15.57;;;8.93;;
46222;SDS011;31943;51.410;7.564;2022-12-07T13:53:26;13.80;;;7.93;;
46222;SDS011;31943;51.410;7.564;2022-12-07T14:11:06;15.30;;;8.38;;
46222;SDS011;31943;51.410;7.564;2022-12-07T14:13:44;13.23;;;7.78;;
46222;SDS011;31943;51.410;7.564;2022-12-07T14:16:22;16.48;;;7.57;;
46222;SDS011;31943;51.410;7.564;2022-12-07T14:18:51;12.32;;;8.05;;
46222;SDS011;31943;51.410;7.564;2022-12-07T14:21:18;10.90;;;7.68;;
46222;SDS011;31943;51.410;7.564;2022-12-07T14:23:45;17.75;;;7.82;;
46222;SDS011;31943;51.410;7.564;2022-12-07T14:26:38;15.48;;;6.82;;
46222;SDS011;31943;51.410;7.564;2022-12-07T14:29:19;16.85;;;7.00;;
46222;SDS011;31943;51.410;7.564;2022-12-07T14:31:55;8.73;;;5.63;;
46222;SDS011;31943;51.410;7.564;2022-12-07T14:34:22;9.75;;;6.53;;
46222;SDS011;31943;51.410;7.564;2022-12-07T14:36:48;12.75;;;8.02;;
46222;SDS011;31943;51.410;7.564;2022-12-07T14:39:15;11.82;;;7.75;;
46222;SDS011;31943;51.410;7.564;2022-12-07T14:41:43;14.90;;;8.40;;
46222;SDS011;31943;51.410;7.564;2022-12-07T14:44:11;11.82;;;8.45;;
46222;SDS011;31943;51.410;7.564;2022-12-07T14:46:40;11.98;;;7.07;;
46222;SDS011;31943;51.410;7.564;2022-12-07T14:49:07;10.60;;;7.07;;
46222;SDS011;31943;51.410;7.564;2022-12-07T14:51:36;9.95;;;6.70;;
46222;SDS011;31943;51.410;7.564;2022-12-07T14:54:06;7.95;;;6.95;;
46222;SDS011;31943;51.410;7.564;2022-12-07T14:56:41;9.52;;;6.82;;
46222;SDS011;31943;51.410;7.564;2022-12-07T14:59:15;9.00;;;6.38;;
46222;SDS011;31943;51.410;7.564;2022-12-07T15:01:42;6.70;;;5.10;;
46222;SDS011;31943;51.410;7.564;2022-12-07T15:04:09;9.13;;;5.45;;
46222;SDS011;31943;51.410;7.564;2022-12-07T15:06:35;9.00;;;5.55;;
46222;SDS011;31943;51.410;7.564;2022-12-07T15:09:01;12.07;;;5.10;;
46222;SDS011;31943;51.410;7.564;2022-12-07T15:11:27;8.10;;;5.00;;
46222;SDS011;31943;51.410;7.564;2022-12-07T15:13:55;9.60;;;5.72;;
46222;SDS011;31943;51.410;7.564;2022-12-07T15:16:30;7.78;;;5.38;;
46222;SDS011;31943;51.410;7.564;2022-12-07T15:19:02;11.18;;;4.82;;
46222;SDS011;31943;51.410;7.564;2022-12-07T15:21:38;8.30;;;5.50;;
46222;SDS011;31943;51.410;7.564;2022-12-07T15:24:04;7.15;;;4.70;;
46222;SDS011;31943;51.410;7.564;2022-12-07T15:26:30;8.40;;;4.10;;
46222;SDS011;31943;51.410;7.564;2022-12-07T15:29:01;7.22;;;4.18;;
46222;SDS011;31943;51.410;7.564;2022-12-07T15:31:32;6.03;;;3.85;;
46222;SDS011;31943;51.410;7.564;2022-12-07T15:33:59;5.70;;;3.58;;
46222;SDS011;31943;51.410;7.564;2022-12-07T15:36:30;6.15;;;4.10;;
46222;SDS011;31943;51.410;7.564;2022-12-07T15:38:57;7.28;;;3.90;;
46222;SDS011;31943;51.410;7.564;2022-12-07T15:41:22;4.90;;;3.83;;
46222;SDS011;31943;51.410;7.564;2022-12-07T15:43:48;6.97;;;4.25;;
46222;SDS011;31943;51.410;7.564;2022-12-07T15:46:14;6.88;;;4.00;;
46222;SDS011;31943;51.410;7.564;2022-12-07T15:48:42;9.45;;;5.28;;
46222;SDS011;31943;51.410;7.564;2022-12-07T15:51:10;7.57;;;5.78;;
46222;SDS011;31943;51.410;7.564;2022-12-07T15:53:36;10.02;;;4.95;;
46222;SDS011;31943;51.410;7.564;2022-12-07T15:56:05;10.27;;;5.65;;
46222;SDS011;31943;51.410;7.564;2022-12-07T15:58:37;6.82;;;5.25;;
46222;SDS011;31943;51.410;7.564;2022-12-07T16:15:05;8.48;;;4.57;;
46222;SDS011;31943;51.410;7.564;2022-12-07T16:17:51;8.07;;;4.57;;
46222;SDS011;31943;51.410;7.564;2022-12-07T16:20:19;8.43;;;4.28;;
46222;SDS011;31943;51.410;7.564;2022-12-07T16:22:46;7.05;;;4.25;;
46222;SDS011;31943;51.410;7.564;2022-12-07T16:25:12;9.38;;;4.63;;
46222;SDS011;31943;51.410;7.564;2022-12-07T16:27:38;10.93;;;4.13;;
46222;SDS011;31943;51.410;7.564;2022-12-07T16:30:07;8.25;;;4.50;;
46222;SDS011;31943;51.410;7.564;2022-12-07T16:32:33;7.95;;;5.05;;
46222;SDS011;31943;51.410;7.564;2022-12-07T16:35:00;8.88;;;5.13;;
46222;SDS011;31943;51.410;7.564;2022-12-07T16:37:26;13.00;;;6.38;;
46222;SDS011;31943;51.410;7.564;2022-12-07T16:39:52;10.15;;;5.38;;
46222;SDS011;31943;51.410;7.564;2022-12-07T16:42:17;10.93;;;5.30;;
46222;SDS011;31943;51.410;7.564;2022-12-07T16:44:44;9.52;;;5.78;;
46222;SDS011;31943;51.410;7.564;2022-12-07T16:47:12;9.25;;;5.30;;
46222;SDS011;31943;51.410;7.564;2022-12-07T16:49:37;10.27;;;5.28;;
46222;SDS011;31943;51.410;7.564;2022-12-07T16:52:03;9.88;;;5.68;;
46222;SDS011;31943;51.410;7.564;2022-12-07T16:54:29;10.80;;;6.13;;
46222;SDS011;31943;51.410;7.564;2022-12-07T16:56:55;11.77;;;6.13;;
46222;SDS011;31943;51.410;7.564;2022-12-07T16:59:21;9.25;;;5.32;;
46222;SDS011;31943;51.410;7.564;2022-12-07T17:01:47;12.40;;;5.93;;
46222;SDS011;31943;51.410;7.564;2022-12-07T17:04:14;10.65;;;6.00;;
46222;SDS011;31943;51.410;7.564;2022-12-07T17:06:40;11.60;;;5.43;;
46222;SDS011;31943;51.410;7.564;2022-12-07T17:09:06;10.52;;;5.53;;
46222;SDS011;31943;51.410;7.564;2022-12-07T17:11:32;9.85;;;5.70;;
46222;SDS011;31943;51.410;7.564;2022-12-07T17:13:58;8.50;;;5.20;;
46222;SDS011;31943;51.410;7.564;2022-12-07T17:16:24;9.27;;;5.68;;
46222;SDS011;31943;51.410;7.564;2022-12-07T17:18:50;9.70;;;5.00;;
46222;SDS011;31943;51.410;7.564;2022-12-07T17:21:19;13.45;;;5.80;;
46222;SDS011;31943;51.410;7.564;2022-12-07T17:23:46;10.80;;;6.43;;
46222;SDS011;31943;51.410;7.564;2022-12-07T17:26:24;11.75;;;6.70;;
46222;SDS011;31943;51.410;7.564;2022-12-07T17:28:52;12.85;;;6.82;;
46222;SDS011;31943;51.410;7.564;2022-12-07T17:31:21;9.45;;;5.75;;
46222;SDS011;31943;51.410;7.564;2022-12-07T17:33:54;9.57;;;6.05;;
46222;SDS011;31943;51.410;7.564;2022-12-07T17:36:30;11.32;;;6.32;;
46222;SDS011;31943;51.410;7.564;2022-12-07T17:39:15;14.02;;;5.80;;
46222;SDS011;31943;51.410;7.564;2022-12-07T17:41:43;10.98;;;7.13;;
46222;SDS011;31943;51.410;7.564;2022-12-07T17:44:16;12.75;;;6.18;;
46222;SDS011;31943;51.410;7.564;2022-12-07T17:49:36;14.20;;;5.93;;
46222;SDS011;31943;51.410;7.564;2022-12-07T17:55:14;11.32;;;6.00;;
46222;SDS011;31943;51.410;7.564;2022-12-07T17:58:10;9.70;;;5.45;;
46222;SDS011;31943;51.410;7.564;2022-12-07T18:00:39;8.82;;;5.60;;
46222;SDS011;31943;51.410;7.564;2022-12-07T18:03:40;14.73;;;6.57;;
46222;SDS011;31943;51.410;7.564;2022-12-07T18:06:53;11.68;;;6.15;;
46222;SDS011;31943;51.410;7.564;2022-12-07T18:36:30;13.48;;;7.95;;
46222;SDS011;31943;51.410;7.564;2022-12-07T18:38:56;14.45;;;8.73;;
46222;SDS011;31943;51.410;7.564;2022-12-07T18:41:21;13.30;;;9.00;;
46222;SDS011;31943;51.410;7.564;2022-12-07T18:43:47;10.43;;;7.95;;
46222;SDS011;31943;51.410;7.564;2022-12-07T18:46:15;12.45;;;8.73;;
46222;SDS011;31943;51.410;7.564;2022-12-07T18:48:42;11.10;;;9.10;;
46222;SDS011;31943;51.410;7.564;2022-12-07T18:51:11;11.23;;;8.45;;
46222;SDS011;31943;51.410;7.564;2022-12-07T18:53:37;15.18;;;9.10;;
46222;SDS011;31943;51.410;7.564;2022-12-07T18:56:11;10.68;;;8.88;;
46222;SDS011;31943;51.410;7.564;2022-12-07T18:58:41;11.25;;;9.05;;
46222;SDS011;31943;51.410;7.564;2022-12-07T19:01:07;19.92;;;13.60;;
46222;SDS011;31943;51.410;7.564;2022-12-07T19:03:34;19.80;;;14.68;;
46222;SDS011;31943;51.410;7.564;2022-12-07T19:06:07;20.10;;;15.07;;
46222;SDS011;31943;51.410;7.564;2022-12-07T19:11:04;13.15;;;9.43;;
46222;SDS011;31943;51.410;7.564;2022-12-07T19:13:30;13.85;;;9.13;;
46222;SDS011;31943;51.410;7.564;2022-12-07T19:15:56;14.93;;;11.05;;
46222;SDS011;31943;51.410;7.564;2022-12-07T19:18:22;16.25;;;10.98;;
46222;SDS011;31943;51.410;7.564;2022-12-07T19:20:47;19.33;;;11.18;;
46222;SDS011;31943;51.410;7.564;2022-12-07T19:23:15;15.25;;;11.43;;
46222;SDS011;31943;51.410;7.564;2022-12-07T19:25:41;17.15;;;12.02;;
46222;SDS011;31943;51.410;7.564;2022-12-07T19:28:07;15.73;;;11.75;;
46222;SDS011;31943;51.410;7.564;2022-12-07T19:30:33;17.50;;;13.57;;
46222;SDS011;31943;51.410;7.564;2022-12-07T19:32:58;14.65;;;12.38;;
46222;SDS011;31943;51.410;7.564;2022-12-07T19:35:24;17.52;;;12.63;;
46222;SDS011;31943;51.410;7.564;2022-12-07T19:37:50;17.33;;;13.32;;
46222;SDS011;31943;51.410;7.564;2022-12-07T19:40:19;16.65;;;12.55;;
46222;SDS011;31943;51.410;7.564;2022-12-07T19:42:44;20.63;;;12.73;;
46222;SDS011;31943;51.410;7.564;2022-12-07T19:45:10;16.50;;;12.82;;
46222;SDS011;31943;51.410;7.564;2022-12-07T19:47:36;15.63;;;12.95;;
46222;SDS011;31943;51.410;7.564;2022-12-07T19:50:04;15.77;;;13.07;;
46222;SDS011;31943;51.410;7.564;2022-12-07T19:52:30;18.35;;;13.20;;
46222;SDS011;31943;51.410;7.564;2022-12-07T19:54:56;18.23;;;13.68;;
46222;SDS011;31943;51.410;7.564;2022-12-07T19:57:24;15.90;;;13.15;;
46222;SDS011;31943;51.410;7.564;2022-12-07T19:59:49;19.70;;;14.70;;
46222;SDS011;31943;51.410;7.564;2022-12-07T20:02:16;18.00;;;15.18;;
46222;SDS011;31943;51.410;7.564;2022-12-07T20:04:43;19.02;;;14.52;;
46222;SDS011;31943;51.410;7.564;2022-12-07T20:07:12;17.83;;;14.85;;
46222;SDS011;31943;51.410;7.564;2022-12-07T20:09:38;19.85;;;15.00;;
46222;SDS011;31943;51.410;7.564;2022-12-07T20:12:07;19.80;;;15.57;;
46222;SDS011;31943;51.410;7.564;2022-12-07T20:14:40;20.02;;;15.77;;
46222;SDS011;31943;51.410;7.564;2022-12-07T20:17:07;17.88;;;14.52;;
46222;SDS011;31943;51.410;7.564;2022-12-07T20:19:35;21.70;;;15.75;;
46222;SDS011;31943;51.410;7.564;2022-12-07T20:22:02;19.13;;;15.30;;
46222;SDS011;31943;51.410;7.564;2022-12-07T20:24:29;20.60;;;16.40;;
46222;SDS011;31943;51.410;7.564;2022-12-07T20:26:56;21.48;;;16.20;;
46222;SDS011;31943;51.410;7.564;2022-12-07T20:29:23;21.58;;;15.88;;
46222;SDS011;31943;51.410;7.564;2022-12-07T20:31:52;19.20;;;15.20;;
46222;SDS011;31943;51.410;7.564;2022-12-07T20:34:20;21.48;;;16.55;;
46222;SDS011;31943;51.410;7.564;2022-12-07T20:36:46;21.25;;;16.08;;
46222;SDS011;31943;51.410;7.564;2022-12-07T20:39:12;18.90;;;15.73;;
46222;SDS011;31943;51.410;7.564;2022-12-07T20:41:38;22.40;;;16.92;;
46222;SDS011;31943;51.410;7.564;2022-12-07T20:44:04;22.15;;;17.58;;
46222;SDS011;31943;51.410;7.564;2022-12-07T20:46:30;20.17;;;16.95;;
46222;SDS011;31943;51.410;7.564;2022-12-07T20:48:58;24.85;;;18.17;;
46222;SDS011;31943;51.410;7.564;2022-12-07T20:51:24;23.33;;;18.77;;
46222;SDS011;31943;51.410;7.564;2022-12-07T20:53:50;21.40;;;18.05;;
46222;SDS011;31943;51.410;7.564;2022-12-07T20:56:16;21.60;;;19.27;;
46222;SDS011;31943;51.410;7.564;2022-12-07T20:58:44;26.63;;;20.27;;
46222;SDS011;31943;51.410;7.564;2022-12-07T21:01:11;22.80;;;18.60;;
46222;SDS011;31943;51.410;7.564;2022-12-07T21:03:37;23.65;;;18.42;;
46222;SDS011;31943;51.410;7.564;2022-12-07T21:06:05;25.98;;;19.98;;
46222;SDS011;31943;51.410;7.564;2022-12-07T21:08:31;25.63;;;19.05;;
46222;SDS011;31943;51.410;7.564;2022-12-07T21:11:00;25.90;;;20.05;;
46222;SDS011;31943;51.410;7.564;2022-12-07T21:13:31;25.85;;;19.98;;
46222;SDS011;31943;51.410;7.564;2022-12-07T21:15:59;25.17;;;20.08;;
46222;SDS011;31943;51.410;7.564;2022-12-07T21:20:02;24.95;;;19.70;;